Time;durP1;ratioP1;P1;durP2;ratioP2;P2;SDS_P1;SDS_P2;PMS_P1;PMS_P2;Temp;Humidity;BMP_temperature;BMP_pressure;BME280_temperature;BME280_humidity;BME280_pressure;Samples;Min_cycle;Max_cycle;Signal;HPM_P1;HPM_P2
2022/08/29 00:01:00;;;;;;;15.95;2.95;;;14.40;99.90;;;;;;4936113;28;20070;-71
2022/08/29 00:03:26;;;;;;;13.88;3.50;;;14.40;99.90;;;;;;4954867;28;20130;-71
2022/08/29 00:05:52;;;;;;;12.27;3.20;;;14.50;99.90;;;;;;4952670;29;20040;-70
2022/08/29 00:08:19;;;;;;;13.90;3.25;;;14.50;99.90;;;;;;4936254;29;20051;-70
2022/08/29 00:10:45;;;;;;;16.63;3.60;;;14.50;99.90;;;;;;4937090;29;20074;-71
2022/08/29 00:13:13;;;;;;;19.23;3.78;;;14.50;99.90;;;;;;4954271;29;20086;-70
2022/08/29 00:15:40;;;;;;;16.13;3.85;;;14.50;99.90;;;;;;4954794;29;20468;-70
2022/08/29 00:18:07;;;;;;;16.70;4.10;;;14.50;99.90;;;;;;4953922;28;20043;-70
2022/08/29 00:20:34;;;;;;;13.67;4.40;;;14.50;99.90;;;;;;4920901;29;20142;-71
2022/08/29 00:23:01;;;;;;;16.50;3.55;;;14.50;99.90;;;;;;4954038;29;20102;-71
2022/08/29 00:25:26;;;;;;;16.83;3.53;;;14.50;99.90;;;;;;4954350;29;20082;-71
2022/08/29 00:27:53;;;;;;;22.23;3.60;;;14.60;99.90;;;;;;4953987;29;20047;-71
2022/08/29 00:30:20;;;;;;;17.73;3.70;;;14.60;99.90;;;;;;4954114;29;20035;-71
2022/08/29 00:32:46;;;;;;;12.55;3.45;;;14.60;99.90;;;;;;4953339;28;20121;-79
2022/08/29 00:35:23;;;;;;;19.10;4.03;;;14.60;99.90;;;;;;4954268;29;20412;-71
2022/08/29 00:37:50;;;;;;;17.30;4.50;;;14.60;99.90;;;;;;4954589;29;20125;-77
2022/08/29 00:40:20;;;;;;;15.98;3.55;;;14.60;99.90;;;;;;4937655;29;20142;-70
2022/08/29 00:42:46;;;;;;;24.20;4.32;;;14.70;99.90;;;;;;4934669;29;20087;-75
2022/08/29 00:45:13;;;;;;;16.55;4.45;;;14.70;99.90;;;;;;4953458;29;20081;-71
2022/08/29 00:47:46;;;;;;;17.83;4.40;;;14.70;99.90;;;;;;4954330;28;20051;-70
2022/08/29 00:50:20;;;;;;;16.73;3.83;;;14.70;99.90;;;;;;4953960;29;20062;-71
2022/08/29 00:52:47;;;;;;;22.13;4.43;;;14.70;99.90;;;;;;4936114;29;20055;-74
2022/08/29 00:55:22;;;;;;;14.98;4.15;;;14.70;99.90;;;;;;4920236;29;20043;-71
2022/08/29 00:57:54;;;;;;;16.13;4.65;;;14.70;99.90;;;;;;4933337;29;20044;-79
2022/08/29 01:00:20;;;;;;;13.13;3.47;;;14.70;99.90;;;;;;4918317;29;20143;-69
2022/08/29 01:02:47;;;;;;;20.15;4.03;;;14.70;99.90;;;;;;4912672;29;20062;-80
2022/08/29 01:05:15;;;;;;;14.30;4.50;;;14.70;99.90;;;;;;4953788;29;20510;-70
2022/08/29 01:07:41;;;;;;;15.88;4.20;;;14.70;99.90;;;;;;4955084;29;20118;-68
2022/08/29 01:10:08;;;;;;;14.65;3.67;;;14.70;99.90;;;;;;4919927;29;20130;-71
2022/08/29 01:12:34;;;;;;;;;;;14.60;99.90;;;;;;4953610;28;20074;-70
2022/08/29 01:15:07;;;;;;;12.43;4.18;;;14.60;99.90;;;;;;4951479;28;19941;-70
2022/08/29 01:17:41;;;;;;;17.85;4.53;;;14.60;99.90;;;;;;4954270;29;20474;-70
2022/08/29 01:20:27;;;;;;;16.17;4.10;;;14.60;99.90;;;;;;4953768;29;20070;-72
2022/08/29 01:22:55;;;;;;;21.10;4.80;;;14.60;99.90;;;;;;4936506;29;20478;-71
2022/08/29 01:25:24;;;;;;;16.00;4.32;;;14.60;99.90;;;;;;4934808;29;20054;-70
2022/08/29 01:27:58;;;;;;;15.02;4.28;;;14.70;99.90;;;;;;4953358;29;20062;-76
2022/08/29 01:30:25;;;;;;;14.68;4.15;;;14.70;99.90;;;;;;4934612;29;20055;-71
2022/08/29 01:32:50;;;;;;;16.17;4.23;;;14.70;99.90;;;;;;4935012;29;20101;-70
2022/08/29 01:35:16;;;;;;;17.75;4.20;;;14.60;99.90;;;;;;4934626;29;20087;-70
2022/08/29 01:37:44;;;;;;;19.17;4.30;;;14.60;99.90;;;;;;4936723;29;20509;-70
2022/08/29 01:40:11;;;;;;;22.38;4.85;;;14.60;99.90;;;;;;4935016;29;20047;-75
2022/08/29 01:42:37;;;;;;;16.73;4.38;;;14.70;99.90;;;;;;4953789;29;20044;-70
2022/08/29 01:45:04;;;;;;;17.95;4.82;;;14.60;99.90;;;;;;4950741;28;20054;-71
2022/08/29 01:47:33;;;;;;;15.63;4.20;;;14.60;99.90;;;;;;4932536;29;20051;-71
2022/08/29 01:50:00;;;;;;;16.75;4.43;;;14.60;99.90;;;;;;4952458;28;20059;-70
2022/08/29 01:52:26;;;;;;;;;;;14.60;99.90;;;;;;4953515;29;20123;-73
2022/08/29 01:54:52;;;;;;;17.60;3.83;;;14.60;99.90;;;;;;4952033;29;20400;-71
2022/08/29 01:57:19;;;;;;;15.63;4.15;;;14.60;99.90;;;;;;4919268;29;20178;-71
2022/08/29 01:59:45;;;;;;;15.05;3.80;;;14.60;99.90;;;;;;4933504;29;20059;-70
2022/08/29 02:02:21;;;;;;;12.75;4.68;;;14.60;99.90;;;;;;4920012;29;20058;-71
2022/08/29 02:04:47;;;;;;;19.33;5.03;;;14.60;99.90;;;;;;4951415;28;20046;-76
2022/08/29 02:07:18;;;;;;;15.73;4.53;;;14.60;99.90;;;;;;4952273;28;20103;-71
2022/08/29 02:09:45;;;;;;;20.65;4.40;;;14.60;99.90;;;;;;4952551;29;20354;-71
2022/08/29 02:12:11;;;;;;;22.25;4.95;;;14.60;99.90;;;;;;4953088;29;20134;-82
2022/08/29 02:14:37;;;;;;;17.87;4.83;;;14.70;99.90;;;;;;4951264;28;20101;-72
2022/08/29 02:17:05;;;;;;;19.27;4.50;;;14.70;99.90;;;;;;4935198;29;20432;-71
2022/08/29 02:19:32;;;;;;;18.60;4.43;;;14.70;99.90;;;;;;4952106;28;20199;-72
2022/08/29 02:21:58;;;;;;;19.02;4.93;;;14.70;99.90;;;;;;4953288;29;20130;-71
2022/08/29 02:24:24;;;;;;;17.87;4.20;;;14.60;99.90;;;;;;4950949;28;20054;-72
2022/08/29 02:26:51;;;;;;;17.45;4.35;;;14.60;99.90;;;;;;4940596;29;20047;-71
2022/08/29 02:29:16;;;;;;;16.13;3.38;;;14.70;99.90;;;;;;4955090;28;20427;-71
2022/08/29 02:31:42;;;;;;;18.23;4.50;;;14.70;99.90;;;;;;4957739;29;20043;-70
2022/08/29 02:34:09;;;;;;;20.17;5.03;;;14.60;99.90;;;;;;4957179;28;20556;-71
2022/08/29 02:36:36;;;;;;;16.95;4.38;;;14.70;99.90;;;;;;4941142;29;20051;-70
2022/08/29 02:39:03;;;;;;;16.92;4.30;;;14.70;99.90;;;;;;4956942;29;20459;-70
2022/08/29 02:41:28;;;;;;;21.33;5.03;;;14.70;99.90;;;;;;4957298;29;20117;-70
2022/08/29 02:43:54;;;;;;;15.05;4.20;;;14.70;99.90;;;;;;4939087;29;20047;-70
2022/08/29 02:46:20;;;;;;;19.38;4.60;;;14.70;99.90;;;;;;4956910;28;20400;-70
2022/08/29 02:48:46;;;;;;;14.85;4.53;;;14.70;99.90;;;;;;4939198;29;20479;-69
2022/08/29 02:51:25;;;;;;;15.85;4.05;;;14.70;99.90;;;;;;4922830;29;20058;-73
2022/08/29 02:53:50;;;;;;;19.58;4.32;;;14.70;99.90;;;;;;4955636;29;20049;-68
2022/08/29 02:56:17;;;;;;;19.55;4.15;;;14.70;99.90;;;;;;4939257;29;20097;-70
2022/08/29 02:58:42;;;;;;;14.63;4.28;;;14.70;99.90;;;;;;4955104;28;20054;-70
2022/08/29 03:01:09;;;;;;;17.83;4.00;;;14.70;99.90;;;;;;4956673;28;20047;-70
2022/08/29 03:03:35;;;;;;;20.40;4.70;;;14.70;99.90;;;;;;4937641;29;20078;-70
2022/08/29 03:06:01;;;;;;;18.85;4.28;;;14.70;99.90;;;;;;4939148;29;20083;-70
2022/08/29 03:08:27;;;;;;;17.38;3.70;;;14.70;99.90;;;;;;4955074;29;20043;-69
2022/08/29 03:10:52;;;;;;;22.45;4.65;;;14.70;99.90;;;;;;4957503;29;20377;-71
2022/08/29 03:13:19;;;;;;;21.25;4.05;;;14.70;99.90;;;;;;4957405;28;20062;-70
2022/08/29 03:15:44;;;;;;;18.40;4.20;;;14.70;99.90;;;;;;4959121;29;20055;-70
2022/08/29 03:18:11;;;;;;;18.05;4.93;;;14.70;99.90;;;;;;4940954;29;20059;-70
2022/08/29 03:20:37;;;;;;;16.83;4.25;;;14.70;99.90;;;;;;4923096;29;20130;-69
2022/08/29 03:23:04;;;;;;;15.43;3.80;;;14.70;99.90;;;;;;4923026;29;20054;-70
2022/08/29 03:25:30;;;;;;;14.60;3.90;;;14.80;99.90;;;;;;4953895;28;20130;-74
2022/08/29 03:27:58;;;;;;;19.00;4.35;;;14.70;99.90;;;;;;4936047;29;20119;-70
2022/08/29 03:30:24;;;;;;;21.65;4.28;;;14.80;99.90;;;;;;4945303;29;20097;-70
2022/08/29 03:32:50;;;;;;;17.38;4.13;;;14.70;99.90;;;;;;4954566;29;20082;-70
2022/08/29 03:35:18;;;;;;;17.13;4.68;;;14.70;99.90;;;;;;4954262;28;20047;-70
2022/08/29 03:37:44;;;;;;;23.05;6.13;;;14.70;99.90;;;;;;4922656;29;20154;-76
2022/08/29 03:40:12;;;;;;;16.13;4.78;;;14.70;99.90;;;;;;4954833;28;20054;-69
2022/08/29 03:42:38;;;;;;;17.08;4.00;;;14.70;99.90;;;;;;4938568;29;20055;-71
2022/08/29 03:45:10;;;;;;;22.00;4.30;;;14.70;99.90;;;;;;4953663;28;20114;-70
2022/08/29 03:47:36;;;;;;;19.23;4.82;;;14.70;99.90;;;;;;4939515;29;20047;-70
2022/08/29 03:50:03;;;;;;;22.25;4.85;;;14.70;99.90;;;;;;4938548;29;20114;-71
2022/08/29 03:52:29;;;;;;;;;;;14.70;99.90;;;;;;4957015;29;20051;-70
2022/08/29 03:54:54;;;;;;;17.53;4.23;;;14.70;99.90;;;;;;4954806;28;19945;-71
2022/08/29 03:57:20;;;;;;;21.65;4.38;;;14.60;99.90;;;;;;4956916;29;20047;-82
2022/08/29 03:59:46;;;;;;;17.67;4.32;;;14.60;99.90;;;;;;4954875;28;20447;-71
2022/08/29 04:02:13;;;;;;;22.48;4.60;;;14.60;99.90;;;;;;4939939;29;20066;-70
2022/08/29 04:07:23;;;;;;;22.27;4.95;;;14.50;99.90;;;;;;4956155;29;20051;-80
2022/08/29 04:09:48;;;;;;;21.10;4.25;;;14.50;99.90;;;;;;4955418;29;20105;-69
2022/08/29 04:12:15;;;;;;;17.15;4.78;;;14.50;99.90;;;;;;4956321;29;20047;-75
2022/08/29 04:14:41;;;;;;;14.53;4.03;;;14.40;99.90;;;;;;4952515;28;20479;-70
2022/08/29 04:17:09;;;;;;;18.83;4.43;;;14.40;99.90;;;;;;4939723;29;20564;-70
2022/08/29 04:19:35;;;;;;;21.15;4.47;;;14.30;99.90;;;;;;4937907;29;20039;-70
2022/08/29 04:22:04;;;;;;;15.88;4.15;;;14.20;99.90;;;;;;4937118;29;20039;-71
2022/08/29 04:24:31;;;;;;;21.90;4.63;;;14.10;99.90;;;;;;4936119;29;20098;-71
2022/08/29 04:26:57;;;;;;;22.23;4.75;;;14.10;99.90;;;;;;4955554;29;20083;-71
2022/08/29 04:29:23;;;;;;;22.90;4.72;;;14.10;99.90;;;;;;4954957;29;20051;-71
2022/08/29 04:31:49;;;;;;;19.80;4.32;;;14.10;99.90;;;;;;4956402;29;20145;-70
2022/08/29 04:34:14;;;;;;;24.98;5.10;;;14.10;99.90;;;;;;4926021;29;20043;-70
2022/08/29 04:36:43;;;;;;;20.80;5.20;;;14.20;99.90;;;;;;4924669;29;20070;-71
2022/08/29 04:39:09;;;;;;;17.02;4.45;;;14.20;99.90;;;;;;4955310;29;20047;-70
2022/08/29 04:41:36;;;;;;;20.52;4.40;;;14.20;99.90;;;;;;4953344;29;20051;-71
2022/08/29 04:44:02;;;;;;;20.50;4.57;;;14.10;99.90;;;;;;4936711;29;20117;-71
2022/08/29 04:46:28;;;;;;;21.05;4.63;;;14.10;99.90;;;;;;4935233;28;20138;-77
2022/08/29 04:48:54;;;;;;;19.17;5.18;;;14.00;99.90;;;;;;4954278;29;20047;-71
2022/08/29 04:51:21;;;;;;;21.10;4.88;;;14.00;99.90;;;;;;4954896;29;20050;-71
2022/08/29 04:53:48;;;;;;;24.52;5.03;;;14.00;99.90;;;;;;4934369;29;20046;-70
2022/08/29 04:56:14;;;;;;;16.15;4.50;;;14.00;99.90;;;;;;4921244;29;20113;-70
2022/08/29 04:58:42;;;;;;;21.40;4.93;;;14.00;99.90;;;;;;4935267;29;20086;-74
2022/08/29 05:01:11;;;;;;;18.52;4.90;;;14.00;99.90;;;;;;4955199;29;20059;-70
2022/08/29 05:03:37;;;;;;;24.75;4.85;;;14.10;99.90;;;;;;4936673;29;20044;-71
2022/08/29 05:06:08;;;;;;;19.70;4.85;;;14.10;99.90;;;;;;4954052;29;20127;-71
2022/08/29 05:08:36;;;;;;;19.88;4.53;;;14.20;99.90;;;;;;4952476;28;20054;-72
2022/08/29 05:11:02;;;;;;;18.80;4.35;;;14.30;99.90;;;;;;4937502;29;20075;-70
2022/08/29 05:13:28;;;;;;;18.73;4.70;;;14.30;99.90;;;;;;4952451;28;20074;-69
2022/08/29 05:15:54;;;;;;;20.83;4.68;;;14.40;99.90;;;;;;4952356;29;20047;-70
2022/08/29 05:18:19;;;;;;;15.55;5.03;;;14.40;99.90;;;;;;4953595;29;20491;-70
2022/08/29 05:20:47;;;;;;;19.92;4.55;;;14.50;99.90;;;;;;4934867;28;20437;-75
2022/08/29 05:23:15;;;;;;;28.35;4.93;;;14.60;99.90;;;;;;4935417;29;20049;-70
2022/08/29 05:25:41;;;;;;;20.88;4.57;;;14.70;99.90;;;;;;4918582;29;20562;-70
2022/08/29 05:28:10;;;;;;;19.98;4.47;;;14.80;99.90;;;;;;4952348;28;20154;-71
2022/08/29 05:30:37;;;;;;;20.38;5.00;;;14.90;99.90;;;;;;4953327;29;20384;-70
2022/08/29 05:33:04;;;;;;;18.02;4.90;;;15.00;99.90;;;;;;4953957;29;20118;-70
2022/08/29 05:35:30;;;;;;;22.77;4.07;;;15.10;99.90;;;;;;4953821;28;20154;-70
2022/08/29 05:37:56;;;;;;;19.85;4.45;;;15.10;99.90;;;;;;4935192;29;20062;-71
2022/08/29 05:40:22;;;;;;;21.92;5.05;;;15.20;99.90;;;;;;4936735;29;20051;-70
2022/08/29 05:42:47;;;;;;;18.42;5.00;;;15.20;99.90;;;;;;4935038;29;20047;-80
2022/08/29 05:45:13;;;;;;;19.80;4.65;;;15.30;99.90;;;;;;4952249;28;20131;-72
2022/08/29 05:47:39;;;;;;;17.40;4.65;;;15.30;99.90;;;;;;4919765;29;20106;-70
2022/08/29 05:50:06;;;;;;;18.30;4.88;;;15.30;99.90;;;;;;4953437;29;20463;-71
2022/08/29 05:52:32;;;;;;;;;;;15.30;99.90;;;;;;4921134;29;20069;-70
2022/08/29 05:54:58;;;;;;;15.88;4.55;;;15.30;99.90;;;;;;4950801;29;20409;-71
2022/08/29 05:57:24;;;;;;;19.80;4.75;;;15.40;99.90;;;;;;4936048;29;20196;-70
2022/08/29 05:59:52;;;;;;;15.85;4.38;;;15.40;99.90;;;;;;4934681;29;20444;-74
2022/08/29 06:02:19;;;;;;;17.40;4.20;;;15.50;99.90;;;;;;4953624;29;20197;-69
2022/08/29 06:04:45;;;;;;;19.77;4.38;;;15.50;99.90;;;;;;4951956;29;20050;-70
2022/08/29 06:07:11;;;;;;;18.30;4.88;;;15.60;99.90;;;;;;4937259;29;20395;-74
2022/08/29 06:09:38;;;;;;;16.58;4.35;;;15.70;99.90;;;;;;4953792;29;20051;-79
2022/08/29 06:12:05;;;;;;;14.38;4.32;;;15.80;99.90;;;;;;4948096;29;20170;-72
2022/08/29 06:14:31;;;;;;;14.98;3.92;;;15.90;99.90;;;;;;4936185;29;20167;-76
2022/08/29 06:16:57;;;;;;;21.10;4.57;;;16.00;99.90;;;;;;4947806;29;20055;-71
2022/08/29 06:19:23;;;;;;;19.77;4.68;;;16.10;99.90;;;;;;4954211;29;20098;-71
2022/08/29 06:21:49;;;;;;;15.95;4.55;;;16.10;99.90;;;;;;4936040;29;20087;-70
2022/08/29 06:24:15;;;;;;;15.43;4.32;;;16.10;99.90;;;;;;4952799;28;20495;-70
2022/08/29 06:26:43;;;;;;;21.90;4.38;;;16.20;99.90;;;;;;4952890;28;20058;-72
2022/08/29 06:29:09;;;;;;;22.63;4.65;;;16.20;99.90;;;;;;4920349;29;20066;-71
2022/08/29 06:31:35;;;;;;;22.00;5.37;;;16.20;99.90;;;;;;4954255;29;20047;-71
2022/08/29 06:34:03;;;;;;;28.10;5.63;;;16.20;99.90;;;;;;4943209;29;20043;-71
2022/08/29 06:36:30;;;;;;;26.50;5.97;;;16.20;99.90;;;;;;4934330;28;20787;-72
2022/08/29 06:39:00;;;;;;;19.60;5.27;;;16.20;99.90;;;;;;4952592;28;20051;-72
2022/08/29 06:41:26;;;;;;;20.00;5.45;;;16.30;99.90;;;;;;4952527;28;20047;-74
2022/08/29 06:43:55;;;;;;;25.90;5.50;;;16.40;99.90;;;;;;4935199;29;20035;-70
2022/08/29 06:46:28;;;;;;;21.42;4.97;;;16.40;99.90;;;;;;4936604;29;20082;-70
2022/08/29 06:48:55;;;;;;;18.00;4.22;;;16.50;99.90;;;;;;4952120;28;20047;-71
2022/08/29 06:51:22;;;;;;;17.60;4.78;;;16.60;99.90;;;;;;4934148;29;20087;-70
2022/08/29 06:53:47;;;;;;;18.95;4.47;;;16.70;99.90;;;;;;4933695;29;20059;-71
2022/08/29 06:56:14;;;;;;;16.05;4.80;;;16.80;99.90;;;;;;4942498;28;20079;-71
2022/08/29 06:58:41;;;;;;;16.15;4.50;;;17.00;99.90;;;;;;4952825;29;20395;-74
2022/08/29 07:01:08;;;;;;;21.70;4.88;;;16.90;99.90;;;;;;4951587;28;20071;-70
2022/08/29 07:03:34;;;;;;;17.83;4.53;;;17.00;99.90;;;;;;4935042;29;20047;-70
2022/08/29 07:06:00;;;;;;;21.57;4.80;;;17.00;99.90;;;;;;4922808;29;20136;-69
2022/08/29 07:08:26;;;;;;;21.55;4.60;;;17.20;99.90;;;;;;4921694;29;20087;-76
2022/08/29 07:10:52;;;;;;;19.37;4.40;;;17.30;99.90;;;;;;4938783;28;20047;-70
2022/08/29 07:13:17;;;;;;;25.37;4.67;;;17.30;99.90;;;;;;4955331;28;20440;-69
2022/08/29 07:15:43;;;;;;;20.53;4.40;;;17.40;99.90;;;;;;4939024;29;20043;-80
2022/08/29 07:18:09;;;;;;;15.77;4.00;;;17.30;99.90;;;;;;4956174;29;20051;-69
2022/08/29 07:20:38;;;;;;;18.08;4.13;;;17.20;99.90;;;;;;4957949;29;20130;-69
2022/08/29 07:23:03;;;;;;;24.48;4.65;;;17.30;99.90;;;;;;4939761;29;20044;-70
2022/08/29 07:25:29;;;;;;;17.13;4.00;;;17.20;99.90;;;;;;4956655;28;20043;-70
2022/08/29 07:27:55;;;;;;;24.45;4.20;;;17.30;99.90;;;;;;4938484;29;20373;-69
2022/08/29 07:30:21;;;;;;;21.58;4.35;;;17.40;99.90;;;;;;4941228;29;20053;-70
2022/08/29 07:32:47;;;;;;;14.07;4.13;;;17.50;99.90;;;;;;4940383;29;20696;-80
2022/08/29 07:35:14;;;;;;;25.30;4.53;;;17.40;99.90;;;;;;4926308;29;20083;-70
2022/08/29 07:37:39;;;;;;;;;;;17.30;99.90;;;;;;4941679;29;20062;-70
2022/08/29 07:40:07;;;;;;;23.17;4.57;;;17.40;99.90;;;;;;4939293;29;20255;-69
2022/08/29 07:42:37;;;;;;;22.38;4.68;;;17.40;99.90;;;;;;4956340;29;20050;-70
2022/08/29 07:45:07;;;;;;;19.50;4.05;;;17.50;99.90;;;;;;4954319;29;20425;-69
2022/08/29 07:47:33;;;;;;;20.98;4.30;;;17.50;99.90;;;;;;4938920;29;20051;-69
2022/08/29 07:50:00;;;;;;;22.60;4.32;;;17.70;99.90;;;;;;4953730;28;20047;-70
2022/08/29 07:52:29;;;;;;;21.95;5.10;;;17.80;99.90;;;;;;4952189;28;20134;-70
2022/08/29 07:54:55;;;;;;;16.00;4.50;;;17.80;99.90;;;;;;4936869;29;20079;-75
2022/08/29 07:57:21;;;;;;;20.00;4.43;;;17.80;99.90;;;;;;4928949;29;20057;-73
2022/08/29 07:59:47;;;;;;;20.37;4.67;;;17.80;99.90;;;;;;4963226;29;20059;-78
2022/08/29 08:02:13;;;;;;;21.60;4.47;;;17.80;99.90;;;;;;4929269;29;20059;-70
2022/08/29 08:04:39;;;;;;;20.30;4.80;;;18.10;99.90;;;;;;4964087;28;20043;-70
2022/08/29 08:07:05;;;;;;;17.93;4.83;;;18.20;99.90;;;;;;4961488;28;20054;-70
2022/08/29 08:09:31;;;;;;;18.73;4.53;;;18.30;99.90;;;;;;4945669;29;20074;-69
2022/08/29 08:11:57;;;;;;;21.85;4.43;;;18.30;99.90;;;;;;4962779;29;20639;-71
2022/08/29 08:14:23;;;;;;;18.00;4.03;;;18.70;99.90;;;;;;4963182;28;20046;-73
2022/08/29 08:16:48;;;;;;;27.77;4.70;;;18.80;99.90;;;;;;4946276;29;20126;-76
2022/08/29 08:19:14;;;;;;;17.37;5.07;;;18.90;99.90;;;;;;4946275;29;20063;-71
2022/08/29 08:21:42;;;;;;;18.20;4.32;;;19.00;99.90;;;;;;4953632;29;20484;-73
2022/08/29 08:24:08;;;;;;;17.58;4.70;;;19.10;99.90;;;;;;4944663;29;20063;-70
2022/08/29 08:26:34;;;;;;;23.30;4.40;;;19.20;99.90;;;;;;4958471;28;20122;-75
2022/08/29 08:29:00;;;;;;;24.88;5.00;;;19.50;99.90;;;;;;4947686;29;20115;-71
2022/08/29 08:31:26;;;;;;;17.53;4.77;;;19.40;99.90;;;;;;4963833;28;20369;-68
2022/08/29 08:33:52;;;;;;;22.33;5.10;;;19.30;99.90;;;;;;4944620;28;20047;-73
2022/08/29 08:36:22;;;;;;;22.95;4.63;;;19.10;99.90;;;;;;4951968;29;20051;-71
2022/08/29 08:38:49;;;;;;;17.23;4.32;;;19.20;99.90;;;;;;4961984;29;20062;-70
2022/08/29 08:41:26;;;;;;;26.65;4.57;;;19.50;99.90;;;;;;4946020;29;20055;-71
2022/08/29 08:43:59;;;;;;;20.05;3.95;;;19.50;99.90;;;;;;4961405;29;20043;-74
2022/08/29 08:46:35;;;;;;;18.67;3.60;;;19.60;99.90;;;;;;4961924;29;20063;-70
2022/08/29 08:49:12;;;;;;;23.92;4.72;;;19.60;99.90;;;;;;4944895;29;20099;-71
2022/08/29 08:51:44;;;;;;;29.10;3.95;;;19.60;99.90;;;;;;4962228;29;20383;-70
2022/08/29 08:54:22;;;;;;;19.65;3.30;;;19.60;99.90;;;;;;4960835;29;20055;-70
2022/08/29 08:56:55;;;;;;;16.17;3.40;;;19.70;99.90;;;;;;4960994;29;20047;-71
2022/08/29 08:59:42;;;;;;;20.52;4.03;;;19.80;99.90;;;;;;4923329;29;20051;-69
2022/08/29 09:02:10;;;;;;;22.88;3.88;;;19.70;99.90;;;;;;4954094;29;20055;-71
2022/08/29 09:05:13;;;;;;;23.52;3.67;;;19.90;99.90;;;;;;4955796;29;20050;-70
2022/08/29 09:08:09;;;;;;;19.17;3.55;;;20.20;99.90;;;;;;4954018;29;20051;-69
2022/08/29 09:11:02;;;;;;;22.50;4.00;;;20.40;99.90;;;;;;4918271;29;20130;-69
2022/08/29 09:13:31;;;;;;;19.75;3.53;;;20.30;99.90;;;;;;4934047;29;20155;-73
2022/08/29 09:15:59;;;;;;;19.27;4.15;;;20.40;99.90;;;;;;4921318;29;20130;-71
2022/08/29 09:18:43;;;;;;;17.48;3.17;;;20.60;99.90;;;;;;4953822;29;20113;-69
2022/08/29 09:21:15;;;;;;;16.17;3.60;;;20.40;99.90;;;;;;4954177;29;20124;-69
2022/08/29 09:23:44;;;;;;;21.23;3.47;;;20.20;99.90;;;;;;4953331;29;20035;-71
2022/08/29 09:26:11;;;;;;;20.92;3.30;;;20.40;99.90;;;;;;4952731;29;20082;-70
2022/08/29 09:28:39;;;;;;;17.48;3.75;;;20.50;99.90;;;;;;4953106;29;20058;-70
2022/08/29 09:31:26;;;;;;;19.08;3.30;;;20.30;99.90;;;;;;4935519;29;20054;-71
2022/08/29 09:33:54;;;;;;;16.55;3.38;;;20.40;99.90;;;;;;4952677;28;20046;-72
2022/08/29 09:36:49;;;;;;;17.27;3.72;;;20.40;99.90;;;;;;4951963;29;20136;-70
2022/08/29 09:39:20;;;;;;;19.90;3.88;;;20.70;99.90;;;;;;4951949;29;20117;-71
2022/08/29 09:41:56;;;;;;;21.75;4.18;;;20.60;99.90;;;;;;4954166;29;20054;-69
2022/08/29 09:44:26;;;;;;;21.25;3.90;;;20.60;99.90;;;;;;4951325;28;20039;-70
2022/08/29 09:47:08;;;;;;;20.30;3.40;;;20.80;99.90;;;;;;4952764;28;20051;-71
2022/08/29 09:49:37;;;;;;;20.88;3.97;;;21.00;99.90;;;;;;4936525;29;20093;-70
2022/08/29 09:52:10;;;;;;;16.58;3.38;;;20.80;99.90;;;;;;4953275;29;20043;-71
2022/08/29 09:54:37;;;;;;;18.05;3.40;;;20.90;99.90;;;;;;4952162;29;20098;-70
2022/08/29 09:57:09;;;;;;;18.17;3.95;;;21.00;99.90;;;;;;4936152;29;20070;-72
2022/08/29 09:59:42;;;;;;;19.95;3.58;;;21.20;99.90;;;;;;4935671;29;20463;-68
2022/08/29 10:02:21;;;;;;;22.20;3.65;;;21.20;99.90;;;;;;4952771;29;20070;-69
2022/08/29 10:04:51;;;;;;;13.68;3.15;;;21.00;99.90;;;;;;4953643;29;20074;-68
2022/08/29 10:07:44;;;;;;;12.77;2.97;;;21.10;99.90;;;;;;4953169;29;20127;-68
2022/08/29 10:10:15;;;;;;;17.50;3.08;;;20.90;99.90;;;;;;4949830;29;20058;-68
2022/08/29 10:13:06;;;;;;;11.98;3.50;;;20.90;99.90;;;;;;4953793;29;20043;-69
2022/08/29 10:15:56;;;;;;;14.50;3.45;;;21.00;99.90;;;;;;4953906;28;20050;-67
2022/08/29 10:18:48;;;;;;;20.52;3.75;;;21.00;99.90;;;;;;4951923;28;20051;-69
2022/08/29 10:21:17;;;;;;;16.92;3.88;;;21.10;99.90;;;;;;4953802;29;20047;-68
2022/08/29 10:24:12;;;;;;;18.98;3.78;;;21.30;99.90;;;;;;4951699;29;20043;-69
2022/08/29 10:26:59;;;;;;;14.80;3.75;;;21.50;99.90;;;;;;4955047;29;20091;-70
2022/08/29 10:29:35;;;;;;;16.55;3.67;;;21.70;99.90;;;;;;4937418;29;20130;-69
2022/08/29 10:32:27;;;;;;;12.93;3.28;;;21.90;99.90;;;;;;4954240;29;20082;-78
2022/08/29 10:35:29;;;;;;;17.05;3.55;;;21.80;99.90;;;;;;4897062;29;20142;-69
2022/08/29 10:38:03;;;;;;;14.05;3.80;;;21.90;99.90;;;;;;4934587;29;20061;-70
2022/08/29 10:40:49;;;;;;;15.40;4.22;;;22.00;99.90;;;;;;4921589;29;20201;-71
2022/08/29 10:43:43;;;;;;;14.85;3.70;;;22.30;99.90;;;;;;4936128;29;20235;-72
2022/08/29 10:46:24;;;;;;;16.13;3.53;;;22.30;99.90;;;;;;4941450;29;20134;-74
2022/08/29 10:49:32;;;;;;;19.90;4.40;;;22.50;99.90;;;;;;4954025;28;20121;-71
2022/08/29 10:52:16;;;;;;;24.38;4.95;;;22.10;99.90;;;;;;4943294;29;20094;-72
2022/08/29 10:55:09;;;;;;;16.02;3.72;;;21.70;99.90;;;;;;4939460;29;20502;-71
2022/08/29 10:58:15;;;;;;;17.17;3.90;;;21.80;99.90;;;;;;4943022;29;20062;-71
2022/08/29 11:00:46;;;;;;;14.15;3.83;;;21.80;99.90;;;;;;4940317;29;20059;-73
2022/08/29 11:03:12;;;;;;;12.85;3.55;;;22.10;99.90;;;;;;4956196;29;20151;-72
2022/08/29 11:05:52;;;;;;;19.60;3.93;;;22.20;99.90;;;;;;4960036;28;20454;-73
2022/08/29 11:08:29;;;;;;;16.10;3.88;;;22.40;99.90;;;;;;4936623;29;20311;-73
2022/08/29 11:10:55;;;;;;;16.80;3.88;;;22.50;99.90;;;;;;4934540;29;20123;-72
2022/08/29 11:13:42;;;;;;;16.80;3.83;;;22.50;99.90;;;;;;4955579;28;20047;-72
2022/08/29 11:16:27;;;;;;;15.68;4.00;;;22.60;99.90;;;;;;4957405;29;20047;-78
2022/08/29 11:19:12;;;;;;;17.13;4.53;;;22.60;99.90;;;;;;4944536;28;20440;-71
2022/08/29 11:21:53;;;;;;;15.98;3.63;;;22.90;99.90;;;;;;4956878;28;20055;-71
2022/08/29 11:24:19;;;;;;;18.73;4.00;;;23.20;99.60;;;;;;4955904;29;20097;-70
2022/08/29 11:27:01;;;;;;;20.20;4.18;;;23.50;99.90;;;;;;4940506;29;20066;-71
2022/08/29 11:29:45;;;;;;;19.67;4.50;;;23.00;99.90;;;;;;4935862;29;20051;-71
2022/08/29 11:32:18;;;;;;;18.15;4.00;;;23.00;99.90;;;;;;4957950;29;20055;-70
2022/08/29 11:34:55;;;;;;;17.17;4.07;;;23.40;99.90;;;;;;4957349;29;20039;-71
2022/08/29 11:37:44;;;;;;;17.17;3.95;;;23.50;99.90;;;;;;4940479;29;20109;-70
2022/08/29 11:41:03;;;;;;;23.48;4.35;;;23.20;99.90;;;;;;4923141;29;20051;-79
2022/08/29 11:43:37;;;;;;;16.52;4.43;;;23.00;99.90;;;;;;4877159;29;20089;-70
2022/08/29 11:46:05;;;;;;;14.73;4.53;;;22.40;99.90;;;;;;4954057;29;20063;-75
2022/08/29 11:48:39;;;;;;;18.63;4.65;;;22.70;99.90;;;;;;4957258;29;20058;-71
2022/08/29 11:51:36;;;;;;;17.08;4.28;;;22.70;99.90;;;;;;4947284;28;20445;-70
2022/08/29 11:54:41;;;;;;;17.13;4.78;;;22.70;99.90;;;;;;4956564;28;20068;-69
2022/08/29 11:57:10;;;;;;;18.95;4.43;;;22.60;99.90;;;;;;4926730;28;20091;-72
2022/08/29 11:59:50;;;;;;;24.13;5.25;;;22.80;99.90;;;;;;4960336;28;20059;-71
2022/08/29 12:02:31;;;;;;;18.98;5.00;;;22.40;99.90;;;;;;4954268;29;20415;-72
2022/08/29 12:05:00;;;;;;;24.85;5.68;;;22.30;99.90;;;;;;4936514;29;20054;-72
2022/08/29 12:07:35;;;;;;;17.67;5.28;;;22.30;99.90;;;;;;4955583;29;20043;-71
2022/08/29 12:10:23;;;;;;;27.23;5.85;;;22.40;99.90;;;;;;4937208;29;20093;-71
2022/08/29 12:12:57;;;;;;;21.75;6.13;;;22.50;99.90;;;;;;4955592;28;20070;-76
2022/08/29 12:15:45;;;;;;;22.77;5.15;;;22.70;99.90;;;;;;4942920;29;20040;-70
2022/08/29 12:18:12;;;;;;;20.88;6.03;;;22.40;99.90;;;;;;4966641;29;20043;-73
2022/08/29 12:20:44;;;;;;;24.05;6.45;;;22.50;99.90;;;;;;4964103;28;20122;-71
2022/08/29 12:23:14;;;;;;;22.20;5.88;;;22.70;99.90;;;;;;4956674;29;20062;-71
2022/08/29 12:26:12;;;;;;;22.88;6.03;;;22.60;99.90;;;;;;4941663;29;20079;-72
2022/08/29 12:28:44;;;;;;;18.40;6.20;;;22.50;99.90;;;;;;4932158;29;20070;-74
2022/08/29 12:31:40;;;;;;;19.70;5.95;;;22.30;99.90;;;;;;4957095;29;20054;-71
2022/08/29 12:34:38;;;;;;;20.48;5.60;;;21.80;99.90;;;;;;4938868;29;20055;-74
2022/08/29 12:37:20;;;;;;;20.05;5.93;;;21.60;99.90;;;;;;4930479;29;20047;-71
2022/08/29 12:40:06;;;;;;;21.10;5.55;;;21.90;99.90;;;;;;4942009;29;20055;-72
2022/08/29 12:42:59;;;;;;;29.15;5.72;;;22.00;99.90;;;;;;4944264;29;20051;-70
2022/08/29 12:45:29;;;;;;;18.83;5.43;;;22.10;99.90;;;;;;4961530;29;20126;-71
2022/08/29 12:48:25;;;;;;;19.20;5.50;;;22.20;99.90;;;;;;4944785;29;20051;-71
2022/08/29 12:50:52;;;;;;;36.33;6.32;;;22.10;99.90;;;;;;4961581;29;20055;-72
2022/08/29 12:53:32;;;;;;;22.02;5.68;;;22.10;99.90;;;;;;4943684;29;20480;-71
2022/08/29 12:56:15;;;;;;;22.25;5.28;;;22.10;99.90;;;;;;4962271;29;20047;-71
2022/08/29 12:58:53;;;;;;;26.45;6.53;;;22.20;99.90;;;;;;4960483;29;20099;-70
2022/08/29 13:01:39;;;;;;;22.95;5.20;;;22.40;99.90;;;;;;4934594;29;20055;-81